Time;durP1;ratioP1;P1;durP2;ratioP2;P2;SDS_P1;SDS_P2;PMS_P1;PMS_P2;Temp;Humidity;BMP_temperature;BMP_pressure;BME280_temperature;BME280_humidity;BME280_pressure;Samples;Min_cycle;Max_cycle;Signal;HPM_P1;HPM_P2
2024/04/04 00:00:45;;;;;;;582.67;129.35;;;15.70;43.70;;;;;;5007491;28;20176;-69
2024/04/04 00:03:12;;;;;;;448.73;77.35;;;15.70;43.70;;;;;;5002510;28;20429;-71
2024/04/04 00:05:39;;;;;;;460.27;79.97;;;15.80;43.60;;;;;;4997675;28;20049;-71
2024/04/04 00:08:07;;;;;;;463.30;79.90;;;15.80;43.70;;;;;;5005124;28;20259;-70
2024/04/04 00:10:35;;;;;;;588.97;123.32;;;15.80;43.60;;;;;;4979533;28;20058;-69
2024/04/04 00:13:03;;;;;;;497.85;89.97;;;15.90;43.70;;;;;;4991918;28;20053;-69
2024/04/04 00:15:31;;;;;;;461.92;79.95;;;15.90;43.70;;;;;;5002093;28;20050;-69
2024/04/04 00:18:00;;;;;;;534.25;101.25;;;15.90;43.70;;;;;;4990830;28;20049;-72
2024/04/04 00:20:29;;;;;;;492.52;90.68;;;16.00;43.70;;;;;;5015858;28;20120;-68
2024/04/04 00:22:57;;;;;;;444.83;80.95;;;16.00;44.50;;;;;;5007757;28;20066;-70
2024/04/04 00:25:25;;;;;;;465.13;82.57;;;16.00;43.80;;;;;;4995080;28;20046;-70
2024/04/04 00:27:54;;;;;;;477.15;84.53;;;16.00;43.80;;;;;;5014341;28;20053;-68
2024/04/04 00:30:21;;;;;;;453.00;79.70;;;16.00;43.90;;;;;;5001151;28;20068;-68
2024/04/04 00:32:48;;;;;;;489.70;102.63;;;16.00;44.00;;;;;;5007413;28;20056;-68
2024/04/04 00:35:15;;;;;;;501.20;91.82;;;16.00;44.00;;;;;;5010491;28;20052;-71
2024/04/04 00:37:45;;;;;;;464.38;82.20;;;16.00;43.90;;;;;;5011389;28;20092;-68
2024/04/04 00:40:11;;;;;;;455.65;80.03;;;16.00;43.90;;;;;;5009829;28;20058;-71
2024/04/04 00:42:38;;;;;;;629.88;145.23;;;16.00;44.20;;;;;;5003479;28;20053;-69
2024/04/04 00:45:06;;;;;;;450.38;78.72;;;16.00;44.10;;;;;;5012691;28;20410;-70
2024/04/04 00:47:34;;;;;;;452.17;78.13;;;16.00;44.10;;;;;;5015879;28;20080;-69
2024/04/04 00:50:01;;;;;;;495.65;89.93;;;16.00;44.10;;;;;;5011186;28;20054;-71
2024/04/04 00:52:29;;;;;;;461.00;82.88;;;16.00;44.30;;;;;;4984786;28;20607;-68
2024/04/04 00:54:59;;;;;;;456.50;79.78;;;16.00;44.20;;;;;;5002214;28;20049;-70
2024/04/04 00:57:26;;;;;;;474.55;84.90;;;16.00;44.10;;;;;;5005271;28;20140;-71
2024/04/04 00:59:54;;;;;;;469.77;83.10;;;16.10;44.10;;;;;;4995132;28;20053;-68
2024/04/04 01:02:23;;;;;;;459.45;81.43;;;16.00;44.00;;;;;;5017289;28;20045;-68
2024/04/04 01:04:49;;;;;;;503.02;104.60;;;16.00;44.00;;;;;;5009895;28;20800;-67
2024/04/04 01:07:17;;;;;;;492.33;89.25;;;16.00;44.20;;;;;;5002559;28;20046;-68
2024/04/04 01:09:44;;;;;;;502.58;93.22;;;15.80;44.40;;;;;;5009908;28;20085;-68
2024/04/04 01:12:11;;;;;;;528.10;99.15;;;15.70;44.40;;;;;;5003915;28;20057;-68
2024/04/04 01:14:38;;;;;;;644.95;143.68;;;15.70;44.50;;;;;;5005967;28;20054;-69
2024/04/04 01:17:05;;;;;;;477.70;85.53;;;15.80;44.40;;;;;;5013500;28;20067;-69
2024/04/04 01:19:33;;;;;;;483.05;86.78;;;15.80;44.50;;;;;;5015085;28;20071;-68
2024/04/04 01:22:00;;;;;;;456.48;80.70;;;15.80;44.40;;;;;;5005191;28;20057;-68
2024/04/04 01:24:28;;;;;;;482.35;85.63;;;15.80;44.20;;;;;;5019352;28;20144;-68
2024/04/04 01:26:56;;;;;;;473.90;84.30;;;15.70;44.20;;;;;;5029580;28;20056;-69
2024/04/04 01:29:22;;;;;;;492.20;91.38;;;15.50;44.50;;;;;;5023997;28;20068;-70
2024/04/04 01:31:50;;;;;;;507.23;94.57;;;15.40;44.70;;;;;;5015216;28;20099;-68
2024/04/04 01:34:16;;;;;;;471.75;82.47;;;15.30;44.80;;;;;;5004042;28;20046;-69
2024/04/04 01:36:43;;;;;;;632.10;146.27;;;15.20;44.90;;;;;;4988152;28;20056;-68
2024/04/04 01:39:10;;;;;;;453.38;78.32;;;15.20;45.00;;;;;;5012989;28;20106;-68
2024/04/04 01:41:42;;;;;;;465.58;80.75;;;15.10;45.10;;;;;;4997462;28;20138;-69
2024/04/04 01:44:09;;;;;;;461.92;80.05;;;15.10;45.10;;;;;;5012122;28;20076;-68
2024/04/04 01:46:36;;;;;;;607.78;135.77;;;15.10;45.10;;;;;;4997955;28;20053;-68
2024/04/04 01:49:02;;;;;;;452.55;78.70;;;15.20;45.20;;;;;;5011827;28;20516;-69
2024/04/04 01:51:30;;;;;;;447.60;76.70;;;15.20;45.10;;;;;;5005274;28;20542;-69
2024/04/04 01:53:56;;;;;;;460.40;84.97;;;15.30;45.10;;;;;;5007327;28;20045;-69
2024/04/04 01:56:23;;;;;;;523.53;97.32;;;15.30;45.10;;;;;;4998499;28;20527;-68
2024/04/04 01:58:51;;;;;;;497.83;99.38;;;15.30;44.90;;;;;;4991138;28;20041;-70
2024/04/04 02:01:19;;;;;;;471.05;81.72;;;15.40;45.00;;;;;;5009490;28;20086;-68
2024/04/04 02:03:45;;;;;;;467.20;81.03;;;15.40;45.20;;;;;;5003492;28;20057;-69
2024/04/04 02:06:13;;;;;;;489.42;87.18;;;15.40;45.10;;;;;;5008677;28;20088;-70
2024/04/04 02:08:40;;;;;;;611.17;134.55;;;15.50;45.30;;;;;;5009898;28;20049;-70
2024/04/04 02:11:07;;;;;;;499.40;90.18;;;15.50;44.90;;;;;;5010018;28;20448;-70
2024/04/04 02:13:34;;;;;;;457.15;77.93;;;15.60;44.90;;;;;;5015199;28;20061;-69
2024/04/04 02:16:03;;;;;;;479.92;84.85;;;15.60;45.10;;;;;;4990126;28;20176;-70
2024/04/04 02:18:30;;;;;;;478.88;85.38;;;15.60;44.80;;;;;;4983873;28;20049;-69
2024/04/04 02:20:57;;;;;;;480.88;86.82;;;15.70;44.90;;;;;;5008684;28;21208;-71
2024/04/04 02:23:23;;;;;;;477.55;84.30;;;15.60;44.80;;;;;;5001922;28;20591;-68
2024/04/04 02:25:51;;;;;;;490.55;86.68;;;15.60;45.00;;;;;;5014936;28;20075;-69
2024/04/04 02:28:17;;;;;;;466.60;81.15;;;15.70;45.00;;;;;;5014612;28;20053;-69
2024/04/04 02:30:46;;;;;;;621.28;141.30;;;15.70;45.00;;;;;;4994360;28;20046;-70
2024/04/04 02:33:14;;;;;;;652.38;146.10;;;15.70;44.90;;;;;;5008591;28;20049;-70
2024/04/04 02:35:51;;;;;;;457.83;79.15;;;15.80;44.90;;;;;;5015065;28;20053;-71
2024/04/04 02:38:17;;;;;;;483.77;84.35;;;15.90;44.90;;;;;;4991689;28;20065;-69
2024/04/04 02:40:45;;;;;;;632.22;146.00;;;15.90;45.40;;;;;;4988109;28;20050;-70
2024/04/04 02:43:11;;;;;;;473.27;83.18;;;16.00;44.60;;;;;;5005728;28;20512;-70
2024/04/04 02:45:38;;;;;;;537.38;98.43;;;16.10;44.60;;;;;;5003069;28;20562;-69
2024/04/04 02:48:05;;;;;;;474.92;83.10;;;16.10;45.00;;;;;;5007183;28;20064;-71
2024/04/04 02:50:37;;;;;;;508.15;98.88;;;16.10;44.50;;;;;;5022278;28;20520;-71
2024/04/04 02:53:04;;;;;;;474.02;84.22;;;16.10;44.50;;;;;;5012391;28;20533;-71
2024/04/04 02:55:33;;;;;;;468.73;81.40;;;16.20;44.40;;;;;;5034621;28;20497;-71
2024/04/04 02:58:00;;;;;;;455.60;79.28;;;16.30;44.40;;;;;;5014051;28;20065;-72
2024/04/04 03:00:27;;;;;;;551.67;108.10;;;16.20;44.30;;;;;;4991747;28;20080;-71
2024/04/04 03:02:54;;;;;;;466.60;81.68;;;16.20;44.40;;;;;;4981053;28;20045;-71
2024/04/04 03:05:22;;;;;;;478.55;83.85;;;16.10;44.40;;;;;;5007213;28;20419;-73
2024/04/04 03:07:50;;;;;;;508.75;93.30;;;16.10;44.60;;;;;;4994216;28;20045;-69
2024/04/04 03:10:18;;;;;;;476.08;83.32;;;16.10;44.60;;;;;;5019575;28;20057;-72
2024/04/04 03:12:45;;;;;;;616.65;141.23;;;16.10;44.50;;;;;;5004394;28;20065;-70
2024/04/04 03:15:12;;;;;;;466.42;81.95;;;16.20;44.50;;;;;;5001810;28;20830;-72
2024/04/04 03:17:39;;;;;;;463.00;81.25;;;16.20;44.40;;;;;;5006343;28;20049;-72
2024/04/04 03:20:07;;;;;;;470.38;95.45;;;16.30;44.50;;;;;;4999688;28;20500;-70
2024/04/04 03:22:34;;;;;;;587.60;125.50;;;16.30;44.40;;;;;;5003727;28;20071;-71
2024/04/04 03:25:02;;;;;;;483.10;109.13;;;16.30;44.50;;;;;;4989810;28;20050;-70
2024/04/04 03:27:30;;;;;;;476.15;92.68;;;16.30;44.30;;;;;;5004697;28;20062;-71
2024/04/04 03:29:56;;;;;;;613.95;133.70;;;16.40;44.30;;;;;;5001842;28;20754;-70
2024/04/04 03:32:23;;;;;;;466.35;83.80;;;16.40;44.20;;;;;;5008461;28;20061;-72
2024/04/04 03:34:50;;;;;;;545.85;110.45;;;16.50;44.30;;;;;;4991012;28;20053;-68
2024/04/04 03:37:17;;;;;;;473.10;83.47;;;16.40;44.20;;;;;;5002601;28;20085;-72
2024/04/04 03:39:47;;;;;;;540.85;104.30;;;16.40;44.20;;;;;;4992638;28;20143;-70
2024/04/04 03:42:15;;;;;;;472.83;83.90;;;16.40;44.40;;;;;;5014897;28;20057;-71
2024/04/04 03:44:43;;;;;;;678.10;156.90;;;16.40;44.40;;;;;;4994927;28;20056;-71
2024/04/04 03:47:10;;;;;;;465.85;81.35;;;16.50;44.80;;;;;;5024118;28;20053;-72
2024/04/04 03:49:37;;;;;;;479.90;85.50;;;16.50;44.20;;;;;;5005394;28;20073;-72
2024/04/04 03:52:05;;;;;;;469.20;84.90;;;16.50;44.20;;;;;;5006258;28;20124;-72
2024/04/04 03:54:34;;;;;;;523.00;101.63;;;16.50;44.20;;;;;;5005975;28;20116;-70
2024/04/04 03:57:01;;;;;;;502.30;92.60;;;16.40;44.30;;;;;;5009543;28;20060;-71
2024/04/04 03:59:30;;;;;;;483.02;86.78;;;16.40;44.30;;;;;;5001287;28;20079;-69
2024/04/04 04:01:57;;;;;;;464.00;82.03;;;16.40;44.30;;;;;;5009057;28;20049;-71
2024/04/04 04:04:25;;;;;;;481.13;85.90;;;16.50;44.30;;;;;;4991251;28;20069;-69
2024/04/04 04:06:51;;;;;;;508.02;111.68;;;16.50;44.20;;;;;;4994927;28;20076;-70
2024/04/04 04:09:18;;;;;;;464.63;86.15;;;16.40;44.20;;;;;;4991688;28;20055;-69
2024/04/04 04:11:45;;;;;;;482.95;87.25;;;16.20;44.20;;;;;;5013280;28;20078;-69
2024/04/04 04:14:15;;;;;;;478.70;85.13;;;15.90;44.90;;;;;;5027225;28;20049;-70
2024/04/04 04:16:42;;;;;;;667.92;159.20;;;15.70;45.20;;;;;;5017112;28;20058;-70
2024/04/04 04:19:10;;;;;;;482.35;84.60;;;15.50;45.40;;;;;;5019756;28;20058;-70
2024/04/04 04:21:36;;;;;;;493.70;88.43;;;15.40;46.50;;;;;;4993127;28;20050;-68
2024/04/04 04:24:04;;;;;;;473.10;83.05;;;15.30;45.70;;;;;;5007834;28;20056;-68
2024/04/04 04:26:31;;;;;;;500.48;90.72;;;15.30;45.80;;;;;;5004907;28;20484;-69
2024/04/04 04:29:00;;;;;;;489.38;86.97;;;15.30;46.00;;;;;;5011133;28;20065;-68
2024/04/04 04:31:28;;;;;;;472.58;82.45;;;15.20;46.00;;;;;;5019809;28;20118;-70
2024/04/04 04:33:58;;;;;;;520.55;95.38;;;15.20;46.20;;;;;;5001761;28;20479;-69
2024/04/04 04:36:27;;;;;;;498.25;89.00;;;15.10;46.30;;;;;;5007594;28;20111;-72
2024/04/04 04:38:55;;;;;;;513.67;94.18;;;15.10;46.60;;;;;;5008065;28;20321;-70
2024/04/04 04:41:22;;;;;;;511.02;93.95;;;15.20;46.50;;;;;;5011027;28;20057;-69
2024/04/04 04:43:50;;;;;;;468.35;81.55;;;15.20;46.60;;;;;;4990441;28;20452;-69
2024/04/04 04:46:17;;;;;;;581.40;114.13;;;15.20;46.70;;;;;;5012536;28;20061;-70
2024/04/04 04:48:45;;;;;;;631.53;145.98;;;15.30;46.70;;;;;;4987124;28;20055;-72
2024/04/04 04:51:14;;;;;;;469.10;82.38;;;15.40;46.70;;;;;;4989232;28;20046;-70
2024/04/04 04:53:41;;;;;;;482.38;85.13;;;15.50;46.40;;;;;;5001610;28;20115;-71
2024/04/04 04:56:09;;;;;;;492.38;87.00;;;15.60;46.20;;;;;;5008744;28;20061;-70
2024/04/04 04:58:35;;;;;;;682.90;156.70;;;15.70;46.20;;;;;;4994481;28;20053;-73
2024/04/04 05:01:03;;;;;;;467.80;82.63;;;15.70;46.10;;;;;;5009540;28;20127;-71
2024/04/04 05:03:30;;;;;;;487.48;91.55;;;15.80;46.00;;;;;;4995993;28;20056;-73
2024/04/04 05:05:58;;;;;;;505.20;93.38;;;15.90;45.90;;;;;;4986173;28;20050;-66
2024/04/04 05:08:26;;;;;;;491.25;90.88;;;16.00;45.90;;;;;;5002746;28;20538;-64
2024/04/04 05:10:53;;;;;;;516.00;109.32;;;16.00;46.00;;;;;;4992329;28;20200;-65
2024/04/04 05:13:20;;;;;;;503.00;100.65;;;16.10;45.80;;;;;;5003282;28;20128;-63
2024/04/04 05:15:48;;;;;;;507.05;97.47;;;16.20;45.80;;;;;;5006149;28;20529;-64
2024/04/04 05:18:15;;;;;;;508.52;95.43;;;16.20;45.70;;;;;;4983488;28;20061;-64
2024/04/04 05:20:43;;;;;;;682.00;164.80;;;16.20;45.60;;;;;;4996008;28;20046;-63
2024/04/04 05:23:10;;;;;;;526.30;104.40;;;16.30;46.20;;;;;;5000469;28;20061;-64
2024/04/04 05:25:39;;;;;;;498.25;97.70;;;16.40;46.00;;;;;;4997072;28;20115;-63
2024/04/04 05:28:06;;;;;;;499.60;94.40;;;16.40;45.70;;;;;;5008715;28;20061;-65
2024/04/04 05:30:34;;;;;;;582.17;125.95;;;16.40;45.70;;;;;;4999553;28;20064;-64
2024/04/04 05:33:02;;;;;;;480.85;90.72;;;16.50;45.70;;;;;;5001273;28;20050;-65
2024/04/04 05:35:30;;;;;;;503.83;96.72;;;16.60;45.60;;;;;;5006317;28;20171;-63
2024/04/04 05:37:56;;;;;;;521.78;101.30;;;16.70;45.60;;;;;;5000842;28;20119;-62
2024/04/04 05:40:24;;;;;;;491.85;94.43;;;16.70;45.70;;;;;;5003493;28;20065;-64
2024/04/04 05:42:52;;;;;;;538.67;126.60;;;16.70;45.60;;;;;;4993809;28;20111;-67
2024/04/04 05:45:20;;;;;;;530.80;103.78;;;16.80;45.80;;;;;;5000015;28;20056;-65
2024/04/04 05:47:46;;;;;;;531.75;108.30;;;16.80;45.70;;;;;;5004346;28;20090;-64
2024/04/04 05:50:15;;;;;;;504.13;97.97;;;16.90;45.70;;;;;;5008294;28;20050;-66
2024/04/04 05:52:41;;;;;;;719.30;190.48;;;16.90;45.80;;;;;;5004101;28;20104;-64
2024/04/04 05:55:11;;;;;;;489.25;91.70;;;16.90;46.10;;;;;;5013081;28;20053;-64
2024/04/04 05:57:37;;;;;;;518.30;100.03;;;17.00;45.70;;;;;;4999262;28;20052;-64
2024/04/04 06:00:08;;;;;;;595.30;130.30;;;17.00;45.60;;;;;;4951487;28;20057;-63
2024/04/04 06:02:41;;;;;;;676.08;171.18;;;17.10;45.60;;;;;;4995183;28;20480;-64
2024/04/04 06:05:08;;;;;;;504.45;97.00;;;17.20;45.60;;;;;;5007922;28;20053;-65
2024/04/04 06:07:35;;;;;;;554.45;112.32;;;17.20;45.50;;;;;;4992232;28;20046;-65
2024/04/04 06:10:03;;;;;;;506.10;99.43;;;17.20;45.90;;;;;;5011326;28;20064;-63
2024/04/04 06:12:29;;;;;;;576.75;123.80;;;17.30;45.20;;;;;;5003790;28;20064;-62
2024/04/04 06:14:57;;;;;;;525.45;101.95;;;17.20;45.20;;;;;;4998090;28;20061;-64
2024/04/04 06:17:24;;;;;;;556.55;112.60;;;17.20;45.30;;;;;;5005199;28;20397;-62
2024/04/04 06:19:52;;;;;;;484.67;91.70;;;17.20;45.20;;;;;;5002900;28;20466;-63
2024/04/04 06:22:19;;;;;;;507.05;97.43;;;17.20;45.30;;;;;;4993112;28;20605;-64
2024/04/04 06:24:46;;;;;;;641.50;163.55;;;17.30;45.30;;;;;;5002797;28;20065;-66
2024/04/04 06:27:13;;;;;;;573.47;117.82;;;17.40;45.20;;;;;;5007194;28;20057;-65
2024/04/04 06:29:41;;;;;;;486.95;92.30;;;17.60;45.20;;;;;;5008797;28;20057;-64
2024/04/04 06:32:08;;;;;;;490.70;93.88;;;17.80;45.20;;;;;;5011126;28;20056;-65
2024/04/04 06:34:36;;;;;;;618.08;138.27;;;18.00;45.00;;;;;;5005728;28;20069;-65
2024/04/04 06:37:04;;;;;;;594.42;123.25;;;18.10;44.80;;;;;;5004082;28;20091;-65
2024/04/04 06:39:30;;;;;;;477.08;92.22;;;18.20;44.80;;;;;;5005736;28;20129;-62
2024/04/04 06:41:57;;;;;;;480.42;92.78;;;18.40;44.70;;;;;;5004854;28;20050;-62
2024/04/04 06:44:24;;;;;;;523.58;104.85;;;18.50;44.60;;;;;;5017168;28;20137;-63
2024/04/04 06:46:51;;;;;;;489.63;101.32;;;18.70;44.60;;;;;;5008616;28;20613;-62
2024/04/04 06:49:18;;;;;;;497.95;98.75;;;18.80;44.50;;;;;;5000135;28;20058;-62
2024/04/04 06:51:46;;;;;;;507.02;99.75;;;18.80;44.30;;;;;;5000631;28;20112;-64
2024/04/04 06:54:13;;;;;;;500.20;98.90;;;18.90;44.30;;;;;;5008504;28;20041;-65
2024/04/04 06:56:40;;;;;;;645.60;167.77;;;19.00;44.20;;;;;;5007970;28;20065;-63
2024/04/04 06:59:06;;;;;;;511.52;103.40;;;19.00;44.20;;;;;;5004082;28;20068;-63
2024/04/04 07:01:34;;;;;;;496.70;98.13;;;19.20;44.20;;;;;;5005383;28;20424;-67
2024/04/04 07:04:00;;;;;;;494.88;99.43;;;19.10;44.00;;;;;;5007936;28;20107;-63
2024/04/04 07:06:27;;;;;;;528.05;106.90;;;19.10;44.10;;;;;;4991333;28;20679;-64
2024/04/04 07:08:55;;;;;;;525.63;109.07;;;19.10;44.00;;;;;;4993532;28;20065;-62
2024/04/04 07:11:23;;;;;;;499.10;101.57;;;19.10;44.10;;;;;;4997904;28;20056;-66
2024/04/04 07:13:49;;;;;;;566.38;122.90;;;19.30;44.20;;;;;;5002678;28;20061;-64
2024/04/04 07:16:16;;;;;;;520.25;109.72;;;19.40;44.10;;;;;;5003048;28;20077;-63
2024/04/04 07:18:43;;;;;;;725.80;188.20;;;19.50;44.00;;;;;;4988485;28;20049;-65
2024/04/04 07:21:10;;;;;;;536.10;107.88;;;19.50;44.00;;;;;;5010385;28;20474;-62
2024/04/04 07:23:37;;;;;;;502.52;101.47;;;19.50;43.80;;;;;;5008445;28;20458;-62
2024/04/04 07:26:06;;;;;;;516.38;104.38;;;19.50;43.80;;;;;;5000646;28;20054;-65
2024/04/04 07:28:33;;;;;;;619.90;139.48;;;19.60;43.90;;;;;;4990754;28;20109;-65
2024/04/04 07:31:00;;;;;;;489.83;98.55;;;19.70;43.90;;;;;;4998919;28;20045;-63
2024/04/04 07:33:27;;;;;;;564.95;120.38;;;19.80;43.80;;;;;;5007571;28;20111;-63
2024/04/04 07:35:54;;;;;;;513.60;105.15;;;20.00;44.00;;;;;;4999851;28;20042;-64
2024/04/04 07:38:20;;;;;;;557.78;119.60;;;20.40;44.00;;;;;;4999541;28;20471;-64
2024/04/04 07:40:48;;;;;;;671.85;176.38;;;20.80;43.80;;;;;;4998107;28;20069;-66
2024/04/04 07:43:18;;;;;;;524.88;112.93;;;21.10;43.50;;;;;;5012771;28;20054;-64
2024/04/04 07:45:45;;;;;;;516.42;111.50;;;21.50;43.20;;;;;;5009318;28;20484;-64
2024/04/04 07:48:14;;;;;;;538.97;119.88;;;22.10;43.70;;;;;;4998548;28;20128;-63
2024/04/04 07:50:42;;;;;;;653.72;186.93;;;22.90;43.40;;;;;;4993316;28;20412;-67
2024/04/04 07:53:08;;;;;;;515.92;122.70;;;24.20;43.00;;;;;;5003798;28;20129;-65
2024/04/04 07:55:36;;;;;;;523.67;126.88;;;24.90;41.50;;;;;;5010413;28;20053;-67
2024/04/04 07:58:02;;;;;;;519.30;127.78;;;25.20;41.00;;;;;;4992542;28;20046;-64
2024/04/04 08:00:33;;;;;;;531.75;144.13;;;26.00;41.30;;;;;;5007667;28;20064;-63
2024/04/04 08:03:01;;;;;;;523.88;139.23;;;27.00;40.70;;;;;;5013669;28;20087;-64
2024/04/04 08:05:29;;;;;;;573.67;164.95;;;27.80;39.80;;;;;;5009253;28;20060;-66
2024/04/04 08:07:55;;;;;;;561.15;158.15;;;28.30;39.10;;;;;;5005749;28;20093;-64
2024/04/04 08:10:23;;;;;;;559.75;166.77;;;28.80;39.40;;;;;;4999550;28;20929;-66
2024/04/04 08:12:51;;;;;;;549.92;182.98;;;29.40;38.80;;;;;;5013901;28;20396;-65
2024/04/04 08:15:19;;;;;;;539.90;172.15;;;29.70;38.30;;;;;;5018088;28;20086;-64
2024/04/04 08:17:49;;;;;;;563.67;183.25;;;29.90;37.90;;;;;;4988476;28;20052;-64
2024/04/04 08:20:16;;;;;;;523.95;174.63;;;30.90;38.60;;;;;;5004261;28;20172;-63
2024/04/04 08:22:43;;;;;;;649.78;245.57;;;32.30;37.80;;;;;;4995062;28;20106;-65
2024/04/04 08:25:11;;;;;;;544.88;194.50;;;33.30;36.90;;;;;;5004544;28;20718;-63
2024/04/04 08:27:38;;;;;;;581.20;224.75;;;34.00;36.30;;;;;;5011200;28;20049;-64
2024/04/04 08:30:08;;;;;;;564.60;220.55;;;34.80;35.80;;;;;;5002554;28;20057;-64
2024/04/04 08:32:34;;;;;;;648.63;270.02;;;35.30;35.00;;;;;;4999589;28;20054;-64
2024/04/04 08:35:06;;;;;;;556.13;224.55;;;35.10;33.80;;;;;;5006196;28;20668;-64
2024/04/04 08:37:33;;;;;;;557.75;224.07;;;34.60;33.80;;;;;;5003476;28;20057;-64
2024/04/04 08:40:00;;;;;;;534.97;205.05;;;33.90;34.20;;;;;;5000482;28;20499;-63
2024/04/04 08:42:28;;;;;;;540.13;227.05;;;33.60;35.00;;;;;;4998355;28;20050;-64
2024/04/04 08:44:58;;;;;;;534.65;254.27;;;33.60;34.60;;;;;;5003895;28;20119;-64
2024/04/04 08:47:26;;;;;;;611.13;260.10;;;34.10;34.80;;;;;;4991535;28;20163;-66
2024/04/04 08:49:55;;;;;;;540.08;233.57;;;35.00;34.60;;;;;;5000382;28;20050;-66
2024/04/04 08:52:24;;;;;;;534.38;226.07;;;35.50;34.10;;;;;;4999069;28;20054;-63
2024/04/04 08:54:52;;;;;;;551.00;244.98;;;35.60;33.50;;;;;;4988382;28;20554;-65
2024/04/04 08:57:20;;;;;;;613.85;253.63;;;35.10;33.10;;;;;;5000725;28;20559;-64
2024/04/04 08:59:55;;;;;;;539.78;227.90;;;34.40;32.80;;;;;;5003428;28;20058;-63
2024/04/04 09:02:22;;;;;;;574.08;238.10;;;34.00;34.10;;;;;;5007346;28;20149;-65
2024/04/04 09:04:50;;;;;;;655.15;308.27;;;33.90;33.30;;;;;;4997643;28;20065;-65
2024/04/04 09:07:17;;;;;;;684.67;302.75;;;33.40;32.80;;;;;;5003103;28;20096;-63
2024/04/04 09:09:48;;;;;;;572.80;256.42;;;32.60;32.90;;;;;;5005612;28;20141;-63
2024/04/04 09:12:16;;;;;;;530.35;229.02;;;31.80;33.20;;;;;;5005784;28;20037;-68
2024/04/04 09:14:43;;;;;;;734.50;286.02;;;31.20;33.60;;;;;;4999703;28;20054;-65
2024/04/04 09:17:10;;;;;;;567.65;207.30;;;31.00;33.80;;;;;;5009563;28;20042;-63
2024/04/04 09:19:38;;;;;;;577.78;198.00;;;30.60;33.80;;;;;;4990745;28;20515;-66
2024/04/04 09:22:06;;;;;;;499.10;176.98;;;30.70;34.60;;;;;;5009977;28;20049;-63
2024/04/04 09:24:37;;;;;;;594.47;225.05;;;31.70;34.90;;;;;;5026005;28;20045;-64
2024/04/04 09:27:05;;;;;;;608.15;247.38;;;33.10;34.30;;;;;;5009967;28;20049;-64
2024/04/04 09:29:34;;;;;;;542.67;225.40;;;34.50;33.60;;;;;;5004244;28;20073;-64
2024/04/04 09:32:03;;;;;;;546.60;239.10;;;35.60;32.70;;;;;;5013751;28;20103;-64
2024/04/04 09:34:31;;;;;;;554.47;250.93;;;36.70;32.20;;;;;;4986868;28;20069;-62
2024/04/04 09:36:59;;;;;;;580.80;263.90;;;37.40;31.40;;;;;;5004529;28;20053;-66
2024/04/04 09:39:28;;;;;;;553.30;269.95;;;38.30;31.10;;;;;;4998897;28;20072;-66
2024/04/04 09:41:59;;;;;;;568.13;291.75;;;39.20;30.30;;;;;;4999599;28;20149;-64
2024/04/04 09:44:28;;;;;;;634.88;404.00;;;39.70;29.70;;;;;;4999849;28;20059;-66
2024/04/04 09:46:56;;;;;;;597.13;319.38;;;40.00;29.50;;;;;;4993810;28;20052;-65
2024/04/04 09:49:24;;;;;;;593.33;313.17;;;40.30;29.00;;;;;;4999944;28;20460;-66
2024/04/04 09:51:53;;;;;;;553.30;305.00;;;40.60;29.00;;;;;;5009143;28;20057;-67
2024/04/04 09:54:21;;;;;;;568.03;325.58;;;41.00;28.70;;;;;;4990573;28;20622;-66
2024/04/04 09:56:49;;;;;;;676.20;365.23;;;41.60;28.60;;;;;;4999303;28;20180;-68
2024/04/04 09:59:16;;;;;;;572.38;338.23;;;42.10;28.20;;;;;;5002472;28;20060;-65
2024/04/04 10:01:44;;;;;;;567.03;330.10;;;42.30;27.70;;;;;;5004991;28;20082;-64
2024/04/04 10:04:16;;;;;;;570.88;333.48;;;42.30;27.40;;;;;;5008166;28;20081;-65
2024/04/04 10:06:44;;;;;;;737.47;422.15;;;42.30;27.30;;;;;;4980020;28;20140;-66
2024/04/04 10:09:16;;;;;;;574.05;337.77;;;42.60;27.30;;;;;;4999194;28;20088;-66
2024/04/04 10:11:43;;;;;;;570.95;347.17;;;42.70;26.90;;;;;;4990719;28;20420;-66
2024/04/04 10:14:14;;;;;;;576.50;347.38;;;42.90;26.80;;;;;;5004496;28;20435;-65
2024/04/04 10:16:45;;;;;;;714.25;403.60;;;43.00;26.60;;;;;;5001686;28;20049;-65
2024/04/04 10:19:14;;;;;;;586.75;354.70;;;43.30;26.40;;;;;;4992189;28;20057;-65
2024/04/04 10:21:41;;;;;;;625.00;379.92;;;43.30;26.20;;;;;;5001904;28;20066;-65
2024/04/04 10:24:10;;;;;;;572.88;383.00;;;43.40;26.10;;;;;;4991430;28;20050;-64
2024/04/04 10:26:37;;;;;;;684.10;407.15;;;43.50;26.00;;;;;;5005957;28;20072;-64
2024/04/04 10:29:04;;;;;;;574.17;369.98;;;43.80;26.00;;;;;;5002050;28;20068;-65
2024/04/04 10:31:31;;;;;;;559.58;351.98;;;44.00;25.80;;;;;;5013988;28;20057;-65
2024/04/04 10:34:04;;;;;;;552.45;352.85;;;44.10;25.50;;;;;;4994556;28;20051;-65
2024/04/04 10:36:44;;;;;;;639.70;381.17;;;43.90;25.20;;;;;;5003218;28;20053;-68
2024/04/04 10:39:13;;;;;;;575.28;360.02;;;43.60;25.10;;;;;;5004678;28;20080;-64
2024/04/04 10:41:41;;;;;;;586.92;366.85;;;43.30;25.20;;;;;;5008463;28;20146;-66
2024/04/04 10:44:13;;;;;;;561.35;356.25;;;43.40;25.20;;;;;;5004357;28;20045;-68
2024/04/04 10:46:42;;;;;;;727.72;423.25;;;43.40;25.00;;;;;;5000832;28;20057;-65
2024/04/04 10:49:12;;;;;;;566.38;354.00;;;43.30;24.80;;;;;;5003917;28;20087;-65
2024/04/04 10:51:43;;;;;;;563.63;344.73;;;43.00;24.70;;;;;;5008452;28;20541;-65
2024/04/04 10:54:11;;;;;;;602.22;338.45;;;42.40;24.50;;;;;;5010377;28;20530;-66
2024/04/04 10:56:38;;;;;;;700.25;377.48;;;41.50;24.70;;;;;;5003916;28;20080;-65
2024/04/04 10:59:06;;;;;;;572.22;300.10;;;40.20;24.80;;;;;;4996697;28;20061;-65
2024/04/04 11:01:33;;;;;;;583.22;298.77;;;38.90;25.40;;;;;;5009646;28;20049;-63
2024/04/04 11:04:01;;;;;;;625.38;306.65;;;38.00;26.40;;;;;;5001813;28;20058;-63
2024/04/04 11:06:29;;;;;;;566.92;269.30;;;37.00;26.10;;;;;;5001551;28;20050;-65
2024/04/04 11:08:57;;;;;;;558.97;261.20;;;35.90;26.50;;;;;;4998094;28;20834;-64
2024/04/04 11:11:24;;;;;;;614.33;262.58;;;35.10;27.50;;;;;;5001112;28;20057;-64
2024/04/04 11:13:55;;;;;;;562.08;233.50;;;34.80;27.30;;;;;;5000151;28;20838;-64
2024/04/04 11:16:21;;;;;;;599.72;239.48;;;34.30;27.80;;;;;;5003078;28;20052;-66
2024/04/04 11:18:55;;;;;;;642.47;263.65;;;33.70;27.40;;;;;;5005382;28;20057;-66
2024/04/04 11:21:23;;;;;;;531.90;205.15;;;32.90;27.70;;;;;;5008137;28;20066;-66
2024/04/04 11:23:52;;;;;;;552.75;206.98;;;32.30;27.90;;;;;;5008638;28;20053;-66
2024/04/04 11:26:20;;;;;;;575.38;220.13;;;31.20;28.00;;;;;;5007941;28;20064;-65
2024/04/04 11:28:48;;;;;;;729.28;293.92;;;31.20;28.60;;;;;;4999102;28;20045;-63
2024/04/04 11:31:16;;;;;;;571.95;222.52;;;30.90;29.00;;;;;;5007543;28;20049;-68
2024/04/04 11:33:43;;;;;;;543.78;204.30;;;30.80;29.10;;;;;;5005960;28;20125;-67
2024/04/04 11:36:11;;;;;;;549.90;209.02;;;30.70;29.20;;;;;;5014374;28;20049;-67
2024/04/04 11:38:42;;;;;;;685.92;258.70;;;30.60;29.20;;;;;;4993066;28;20179;-65
2024/04/04 11:41:11;;;;;;;568.92;224.35;;;30.60;29.30;;;;;;5001634;28;20057;-66
2024/04/04 11:43:38;;;;;;;571.40;221.63;;;30.70;29.20;;;;;;5011702;28;20564;-65
2024/04/04 11:46:07;;;;;;;642.58;246.93;;;30.60;29.10;;;;;;5007894;28;20046;-64
2024/04/04 11:48:35;;;;;;;641.50;245.82;;;30.60;29.30;;;;;;5007021;28;20062;-65
2024/04/04 11:51:03;;;;;;;634.72;258.90;;;30.50;29.20;;;;;;5007361;28;20057;-62
2024/04/04 11:53:31;;;;;;;575.72;236.45;;;30.50;29.30;;;;;;4994589;28;20244;-65
2024/04/04 11:55:57;;;;;;;599.15;233.07;;;30.40;29.20;;;;;;5006177;28;20564;-64
2024/04/04 11:58:27;;;;;;;574.83;220.43;;;30.30;29.30;;;;;;5014711;28;20065;-64
2024/04/04 12:00:54;;;;;;;571.13;212.45;;;30.10;29.30;;;;;;4997314;28;20136;-66
2024/04/04 12:03:22;;;;;;;530.42;184.93;;;30.10;29.50;;;;;;5002889;28;20112;-63
2024/04/04 12:05:48;;;;;;;545.65;188.02;;;30.00;29.50;;;;;;5007808;28;20139;-63
2024/04/04 12:08:16;;;;;;;525.65;187.60;;;30.00;29.60;;;;;;5007156;28;20103;-65
2024/04/04 12:10:43;;;;;;;710.92;277.17;;;30.10;29.60;;;;;;4999378;28;20124;-65
2024/04/04 12:13:11;;;;;;;538.83;186.63;;;30.20;29.60;;;;;;5003488;28;20099;-63